This is the latest recevied weather packets stored in our database for station/object E24TVS-11. If no packets are shown the sender has not sent any weather packets the latest 10 day(s).
| Time | Temp. | Humidity | Pressure | Rain* | Wind** | Luminosity | Snow |
|---|---|---|---|---|---|---|---|
| 1778387226 | 34.44° C | 61% | - | - | - | 0 W/m² | - |
| 1778386004 | 34.44° C | 62% | - | - | - | 0 W/m² | - |
| 1778384782 | 34.44° C | 63% | - | - | - | 0 W/m² | - |
| 1778383560 | 34.44° C | 63% | - | - | - | 0 W/m² | - |
| 1778382338 | 33.89° C | 65% | - | - | - | 0 W/m² | - |
| 1778381101 | 32.78° C | 69% | - | - | - | 0 W/m² | - |
| 1778139573 | 38.33° C | 45% | - | - | - | 0 W/m² | - |
| 1778138351 | 38.33° C | 46% | - | - | - | 0 W/m² | - |
| 1778137128 | 37.78° C | 47% | - | - | - | 0 W/m² | - |
| 1778135906 | 38.33° C | 46% | - | - | - | 0 W/m² | - |
| 1778134668 | 37.22° C | 49% | - | - | - | 0 W/m² | - |
| 1777983804 | 34.44° C | 59% | - | - | - | 0 W/m² | - |
| 1777980159 | 34.44° C | 58% | - | - | - | 0 W/m² | - |
| 1777976667 | 34.44° C | 55% | - | - | - | 0 W/m² | - |
| 1777974686 | 34.44° C | 58% | - | - | - | 0 W/m² | - |
| 1777972864 | 33.89° C | 59% | - | - | - | 0 W/m² | - |
| 1777971042 | 33.89° C | 61% | - | - | - | 0 W/m² | - |
| 1777969221 | 33.89° C | 61% | - | - | - | 0 W/m² | - |
| 1777967398 | 33.89° C | 62% | - | - | - | 0 W/m² | - |
| 1777965576 | 33.89° C | 61% | - | - | - | 0 W/m² | - |
| 1777963754 | 33.89° C | 61% | - | - | - | 0 W/m² | - |
| 1777961932 | 33.89° C | 61% | - | - | - | 0 W/m² | - |
| 1777960110 | 33.89° C | 60% | - | - | - | 0 W/m² | - |
| 1777958288 | 34.44° C | 59% | - | - | - | 0 W/m² | - |
| 1777956466 | 33.89° C | 60% | - | - | - | 0 W/m² | - |
* Rain since midnight (hover to see other rain measurements)
** Current wind speed in m/s (hover to see current wind gust speed)